
<gpx xmlns="http://www.topografix.com/GPX/1/1" xmlns:gpxx="http://www.garmin.com/xmlschemas/GpxExtensions/v3" xmlns:xsi="http://www.w3.org/2001/XMLSchema-instance" version="1.1" creator="Adze - http://kobotsw.com/apps/adze" xsi:schemaLocation="http://www.topografix.com/GPX/1/1 http://www.topografix.com/GPX/1/1/gpx.xsd http://www.garmin.com/xmlschemas/GpxExtensions/v3 http://www.garmin.com/xmlschemas/GpxExtensionsv3.xsd">
    <metadata>
        <name>Untitled Document</name>
        <link href="http://www.garmin.com"></link>
        <time>2018-02-26T04:50:55.317Z</time>
    </metadata>
    <wpt lon="100.975072" lat="12.905608">
        <ele>71.983887</ele>
        <name>Horseshoe Point</name>
        <cmt>25-SEP-09 16:05:18</cmt>
        <desc>25-SEP-09 16:05:18</desc>
        <sym>Lodging</sym>
        <extensions>
            <gpxx:WaypointExtension xmlns:gpxx="http://www.garmin.com/xmlschemas/GpxExtensions/v3">
                <gpxx:DisplayMode>SymbolAndName</gpxx:DisplayMode>
            </gpxx:WaypointExtension>
        </extensions>
    </wpt>
    <trk>
        <name>Sunday</name>
        <extensions>
            <gpxx:TrackExtension xmlns:gpxx="http://www.garmin.com/xmlschemas/GpxExtensions/v3">
                <gpxx:DisplayColor>Green</gpxx:DisplayColor>
            </gpxx:TrackExtension>
        </extensions>
        <trkseg>
            <trkpt lon="100.971487" lat="12.911386">
                <ele>41.600000</ele>
                <time>2015-03-29T03:05:27Z</time>
            </trkpt>
            <trkpt lon="100.971225" lat="12.911876">
                <ele>40.800000</ele>
                <time>2015-03-29T03:05:36Z</time>
            </trkpt>
            <trkpt lon="100.970437" lat="12.912379">
                <ele>41.200000</ele>
                <time>2015-03-29T03:05:51Z</time>
            </trkpt>
            <trkpt lon="100.969513" lat="12.912384">
                <ele>41.600000</ele>
                <time>2015-03-29T03:06:06Z</time>
            </trkpt>
            <trkpt lon="100.969403" lat="12.912372">
                <ele>41.600000</ele>
                <time>2015-03-29T03:06:08Z</time>
            </trkpt>
            <trkpt lon="100.967748" lat="12.912654">
                <ele>40.400000</ele>
                <time>2015-03-29T03:06:36Z</time>
            </trkpt>
            <trkpt lon="100.966705" lat="12.912630">
                <ele>40.800000</ele>
                <time>2015-03-29T03:06:53Z</time>
            </trkpt>
            <trkpt lon="100.966041" lat="12.912669">
                <ele>40.000000</ele>
                <time>2015-03-29T03:07:04Z</time>
            </trkpt>
            <trkpt lon="100.963864" lat="12.913257">
                <ele>41.400000</ele>
                <time>2015-03-29T03:07:42Z</time>
            </trkpt>
            <trkpt lon="100.963469" lat="12.913437">
                <ele>40.800000</ele>
                <time>2015-03-29T03:07:50Z</time>
            </trkpt>
            <trkpt lon="100.963037" lat="12.913988">
                <ele>41.400000</ele>
                <time>2015-03-29T03:08:03Z</time>
            </trkpt>
            <trkpt lon="100.962793" lat="12.914707">
                <ele>42.000000</ele>
                <time>2015-03-29T03:08:17Z</time>
            </trkpt>
            <trkpt lon="100.962523" lat="12.915546">
                <ele>41.800000</ele>
                <time>2015-03-29T03:08:33Z</time>
            </trkpt>
            <trkpt lon="100.962516" lat="12.915616">
                <ele>42.200000</ele>
                <time>2015-03-29T03:08:35Z</time>
            </trkpt>
            <trkpt lon="100.962555" lat="12.915647">
                <ele>42.600000</ele>
                <time>2015-03-29T03:08:37Z</time>
            </trkpt>
            <trkpt lon="100.963486" lat="12.915587">
                <ele>43.600000</ele>
                <time>2015-03-29T03:09:11Z</time>
            </trkpt>
            <trkpt lon="100.965600" lat="12.915550">
                <ele>45.800000</ele>
                <time>2015-03-29T03:10:15Z</time>
            </trkpt>
            <trkpt lon="100.965766" lat="12.915835">
                <ele>46.600000</ele>
                <time>2015-03-29T03:10:25Z</time>
            </trkpt>
            <trkpt lon="100.965882" lat="12.915843">
                <ele>46.600000</ele>
                <time>2015-03-29T03:10:28Z</time>
            </trkpt>
            <trkpt lon="100.966620" lat="12.915852">
                <ele>45.800000</ele>
                <time>2015-03-29T03:10:48Z</time>
            </trkpt>
            <trkpt lon="100.966575" lat="12.916019">
                <ele>45.400000</ele>
                <time>2015-03-29T03:10:54Z</time>
            </trkpt>
            <trkpt lon="100.966588" lat="12.916010">
                <ele>46.000000</ele>
                <time>2015-03-29T03:10:57Z</time>
            </trkpt>
            <trkpt lon="100.966588" lat="12.916002">
                <ele>45.600000</ele>
                <time>2015-03-29T03:10:58Z</time>
            </trkpt>
            <trkpt lon="100.966937" lat="12.914953">
                <ele>43.800000</ele>
                <time>2015-03-29T03:11:47Z</time>
            </trkpt>
            <trkpt lon="100.967333" lat="12.914892">
                <ele>43.000000</ele>
                <time>2015-03-29T03:12:00Z</time>
            </trkpt>
            <trkpt lon="100.967769" lat="12.915192">
                <ele>40.200000</ele>
                <time>2015-03-29T03:12:36Z</time>
            </trkpt>
            <trkpt lon="100.967779" lat="12.915316">
                <ele>40.400000</ele>
                <time>2015-03-29T03:12:42Z</time>
            </trkpt>
            <trkpt lon="100.967797" lat="12.915406">
                <ele>39.600000</ele>
                <time>2015-03-29T03:12:44Z</time>
            </trkpt>
            <trkpt lon="100.968012" lat="12.916084">
                <ele>39.200000</ele>
                <time>2015-03-29T03:13:03Z</time>
            </trkpt>
            <trkpt lon="100.967936" lat="12.916445">
                <ele>39.600000</ele>
                <time>2015-03-29T03:13:14Z</time>
            </trkpt>
            <trkpt lon="100.967933" lat="12.916478">
                <ele>39.600000</ele>
                <time>2015-03-29T03:13:16Z</time>
            </trkpt>
            <trkpt lon="100.967936" lat="12.916524">
                <ele>39.400000</ele>
                <time>2015-03-29T03:13:19Z</time>
            </trkpt>
            <trkpt lon="100.967960" lat="12.916530">
                <ele>39.600000</ele>
                <time>2015-03-29T03:13:21Z</time>
            </trkpt>
            <trkpt lon="100.969148" lat="12.916455">
                <ele>34.400000</ele>
                <time>2015-03-29T03:14:04Z</time>
            </trkpt>
            <trkpt lon="100.969124" lat="12.916689">
                <ele>33.800000</ele>
                <time>2015-03-29T03:14:14Z</time>
            </trkpt>
            <trkpt lon="100.968713" lat="12.918201">
                <ele>33.200000</ele>
                <time>2015-03-29T03:15:01Z</time>
            </trkpt>
            <trkpt lon="100.968963" lat="12.918739">
                <ele>32.400000</ele>
                <time>2015-03-29T03:15:14Z</time>
            </trkpt>
            <trkpt lon="100.972990" lat="12.918068">
                <ele>38.800000</ele>
                <time>2015-03-29T03:16:42Z</time>
            </trkpt>
            <trkpt lon="100.973129" lat="12.918136">
                <ele>38.800000</ele>
                <time>2015-03-29T03:16:46Z</time>
            </trkpt>
            <trkpt lon="100.973590" lat="12.919400">
                <ele>38.600000</ele>
                <time>2015-03-29T03:17:12Z</time>
            </trkpt>
            <trkpt lon="100.973777" lat="12.919865">
                <ele>38.200000</ele>
                <time>2015-03-29T03:17:22Z</time>
            </trkpt>
            <trkpt lon="100.975071" lat="12.919904">
                <ele>40.200000</ele>
                <time>2015-03-29T03:17:50Z</time>
            </trkpt>
            <trkpt lon="100.975470" lat="12.919978">
                <ele>40.200000</ele>
                <time>2015-03-29T03:17:58Z</time>
            </trkpt>
            <trkpt lon="100.975597" lat="12.919981">
                <ele>39.600000</ele>
                <time>2015-03-29T03:18:01Z</time>
            </trkpt>
            <trkpt lon="100.975713" lat="12.919962">
                <ele>40.400000</ele>
                <time>2015-03-29T03:18:04Z</time>
            </trkpt>
            <trkpt lon="100.975780" lat="12.919941">
                <ele>40.800000</ele>
                <time>2015-03-29T03:18:06Z</time>
            </trkpt>
            <trkpt lon="100.975809" lat="12.919930">
                <ele>40.800000</ele>
                <time>2015-03-29T03:18:07Z</time>
            </trkpt>
            <trkpt lon="100.975866" lat="12.919913">
                <ele>40.800000</ele>
                <time>2015-03-29T03:18:09Z</time>
            </trkpt>
            <trkpt lon="100.975912" lat="12.919905">
                <ele>41.000000</ele>
                <time>2015-03-29T03:18:11Z</time>
            </trkpt>
            <trkpt lon="100.976209" lat="12.919829">
                <ele>41.400000</ele>
                <time>2015-03-29T03:18:23Z</time>
            </trkpt>
            <trkpt lon="100.977444" lat="12.920119">
                <ele>43.400000</ele>
                <time>2015-03-29T03:19:05Z</time>
            </trkpt>
            <trkpt lon="100.978492" lat="12.920166">
                <ele>46.400000</ele>
                <time>2015-03-29T03:19:34Z</time>
            </trkpt>
            <trkpt lon="100.978514" lat="12.920168">
                <ele>46.400000</ele>
                <time>2015-03-29T03:19:35Z</time>
            </trkpt>
            <trkpt lon="100.978535" lat="12.920169">
                <ele>47.000000</ele>
                <time>2015-03-29T03:19:37Z</time>
            </trkpt>
            <trkpt lon="100.978568" lat="12.920188">
                <ele>46.800000</ele>
                <time>2015-03-29T03:19:41Z</time>
            </trkpt>
            <trkpt lon="100.978635" lat="12.920525">
                <ele>46.400000</ele>
                <time>2015-03-29T03:20:08Z</time>
            </trkpt>
            <trkpt lon="100.978442" lat="12.919684">
                <ele>46.600000</ele>
                <time>2015-03-29T03:20:58Z</time>
            </trkpt>
            <trkpt lon="100.978444" lat="12.917289">
                <ele>51.400000</ele>
                <time>2015-03-29T03:22:23Z</time>
            </trkpt>
            <trkpt lon="100.978395" lat="12.917775">
                <ele>49.800000</ele>
                <time>2015-03-29T03:22:40Z</time>
            </trkpt>
            <trkpt lon="100.975395" lat="12.918636">
                <ele>42.000000</ele>
                <time>2015-03-29T03:23:36Z</time>
            </trkpt>
            <trkpt lon="100.975549" lat="12.919484">
                <ele>41.800000</ele>
                <time>2015-03-29T03:23:58Z</time>
            </trkpt>
            <trkpt lon="100.975631" lat="12.919969">
                <ele>41.200000</ele>
                <time>2015-03-29T03:24:16Z</time>
            </trkpt>
            <trkpt lon="100.975337" lat="12.919961">
                <ele>40.800000</ele>
                <time>2015-03-29T03:24:27Z</time>
            </trkpt>
            <trkpt lon="100.974693" lat="12.919830">
                <ele>40.000000</ele>
                <time>2015-03-29T03:24:49Z</time>
            </trkpt>
            <trkpt lon="100.974675" lat="12.919829">
                <ele>39.800000</ele>
                <time>2015-03-29T03:24:50Z</time>
            </trkpt>
            <trkpt lon="100.974645" lat="12.919820">
                <ele>40.200000</ele>
                <time>2015-03-29T03:24:52Z</time>
            </trkpt>
            <trkpt lon="100.974633" lat="12.919813">
                <ele>40.000000</ele>
                <time>2015-03-29T03:24:53Z</time>
            </trkpt>
            <trkpt lon="100.974654" lat="12.919852">
                <ele>40.400000</ele>
                <time>2015-03-29T03:24:59Z</time>
            </trkpt>
            <trkpt lon="100.975546" lat="12.919987">
                <ele>41.400000</ele>
                <time>2015-03-29T03:25:26Z</time>
            </trkpt>
            <trkpt lon="100.975976" lat="12.919883">
                <ele>42.000000</ele>
                <time>2015-03-29T03:25:40Z</time>
            </trkpt>
            <trkpt lon="100.976580" lat="12.919839">
                <ele>42.600000</ele>
                <time>2015-03-29T03:25:58Z</time>
            </trkpt>
            <trkpt lon="100.977208" lat="12.920077">
                <ele>44.200000</ele>
                <time>2015-03-29T03:26:18Z</time>
            </trkpt>
            <trkpt lon="100.978249" lat="12.920175">
                <ele>45.400000</ele>
                <time>2015-03-29T03:26:40Z</time>
            </trkpt>
            <trkpt lon="100.978526" lat="12.920044">
                <ele>47.600000</ele>
                <time>2015-03-29T03:26:51Z</time>
            </trkpt>
            <trkpt lon="100.978515" lat="12.920024">
                <ele>47.600000</ele>
                <time>2015-03-29T03:26:53Z</time>
            </trkpt>
            <trkpt lon="100.978510" lat="12.920013">
                <ele>47.800000</ele>
                <time>2015-03-29T03:26:55Z</time>
            </trkpt>
            <trkpt lon="100.979023" lat="12.921640">
                <ele>46.200000</ele>
                <time>2015-03-29T03:27:52Z</time>
            </trkpt>
            <trkpt lon="100.980560" lat="12.921267">
                <ele>50.400000</ele>
                <time>2015-03-29T03:28:32Z</time>
            </trkpt>
            <trkpt lon="100.980670" lat="12.921624">
                <ele>49.600000</ele>
                <time>2015-03-29T03:28:41Z</time>
            </trkpt>
            <trkpt lon="100.980675" lat="12.921630">
                <ele>50.000000</ele>
                <time>2015-03-29T03:28:43Z</time>
            </trkpt>
            <trkpt lon="100.981616" lat="12.921823">
                <ele>51.200000</ele>
                <time>2015-03-29T03:29:12Z</time>
            </trkpt>
            <trkpt lon="100.981914" lat="12.921590">
                <ele>53.200000</ele>
                <time>2015-03-29T03:29:25Z</time>
            </trkpt>
            <trkpt lon="100.982175" lat="12.922063">
                <ele>52.600000</ele>
                <time>2015-03-29T03:29:38Z</time>
            </trkpt>
            <trkpt lon="100.982102" lat="12.922586">
                <ele>50.400000</ele>
                <time>2015-03-29T03:29:49Z</time>
            </trkpt>
            <trkpt lon="100.981847" lat="12.922724">
                <ele>49.200000</ele>
                <time>2015-03-29T03:29:55Z</time>
            </trkpt>
            <trkpt lon="100.981789" lat="12.923750">
                <ele>47.400000</ele>
                <time>2015-03-29T03:30:14Z</time>
            </trkpt>
            <trkpt lon="100.981785" lat="12.923851">
                <ele>47.000000</ele>
                <time>2015-03-29T03:30:16Z</time>
            </trkpt>
            <trkpt lon="100.982177" lat="12.924683">
                <ele>46.200000</ele>
                <time>2015-03-29T03:30:31Z</time>
            </trkpt>
            <trkpt lon="100.982589" lat="12.925062">
                <ele>48.400000</ele>
                <time>2015-03-29T03:30:42Z</time>
            </trkpt>
            <trkpt lon="100.982786" lat="12.925244">
                <ele>48.400000</ele>
                <time>2015-03-29T03:30:48Z</time>
            </trkpt>
            <trkpt lon="100.982887" lat="12.925313">
                <ele>49.600000</ele>
                <time>2015-03-29T03:30:52Z</time>
            </trkpt>
            <trkpt lon="100.984418" lat="12.925110">
                <ele>52.000000</ele>
                <time>2015-03-29T03:31:25Z</time>
            </trkpt>
            <trkpt lon="100.985148" lat="12.924921">
                <ele>52.600000</ele>
                <time>2015-03-29T03:31:40Z</time>
            </trkpt>
            <trkpt lon="100.985557" lat="12.924956">
                <ele>53.800000</ele>
                <time>2015-03-29T03:31:48Z</time>
            </trkpt>
            <trkpt lon="100.986437" lat="12.925150">
                <ele>55.000000</ele>
                <time>2015-03-29T03:32:06Z</time>
            </trkpt>
            <trkpt lon="100.986727" lat="12.925173">
                <ele>55.200000</ele>
                <time>2015-03-29T03:32:12Z</time>
            </trkpt>
            <trkpt lon="100.987274" lat="12.925539">
                <ele>56.000000</ele>
                <time>2015-03-29T03:32:25Z</time>
            </trkpt>
            <trkpt lon="100.987619" lat="12.925645">
                <ele>56.400000</ele>
                <time>2015-03-29T03:32:32Z</time>
            </trkpt>
            <trkpt lon="100.988116" lat="12.925672">
                <ele>56.200000</ele>
                <time>2015-03-29T03:32:42Z</time>
            </trkpt>
            <trkpt lon="100.988199" lat="12.925651">
                <ele>56.600000</ele>
                <time>2015-03-29T03:32:44Z</time>
            </trkpt>
            <trkpt lon="100.988273" lat="12.925626">
                <ele>56.800000</ele>
                <time>2015-03-29T03:32:46Z</time>
            </trkpt>
            <trkpt lon="100.988341" lat="12.925600">
                <ele>57.000000</ele>
                <time>2015-03-29T03:32:48Z</time>
            </trkpt>
            <trkpt lon="100.988400" lat="12.925574">
                <ele>57.200000</ele>
                <time>2015-03-29T03:32:50Z</time>
            </trkpt>
            <trkpt lon="100.988449" lat="12.925554">
                <ele>57.600000</ele>
                <time>2015-03-29T03:32:52Z</time>
            </trkpt>
            <trkpt lon="100.988459" lat="12.925528">
                <ele>57.600000</ele>
                <time>2015-03-29T03:32:54Z</time>
            </trkpt>
            <trkpt lon="100.988434" lat="12.925527">
                <ele>57.600000</ele>
                <time>2015-03-29T03:32:56Z</time>
            </trkpt>
            <trkpt lon="100.987723" lat="12.925678">
                <ele>56.000000</ele>
                <time>2015-03-29T03:33:12Z</time>
            </trkpt>
            <trkpt lon="100.987592" lat="12.926256">
                <ele>55.200000</ele>
                <time>2015-03-29T03:33:23Z</time>
            </trkpt>
            <trkpt lon="100.987039" lat="12.927428">
                <ele>55.200000</ele>
                <time>2015-03-29T03:33:46Z</time>
            </trkpt>
            <trkpt lon="100.986978" lat="12.927564">
                <ele>54.400000</ele>
                <time>2015-03-29T03:33:49Z</time>
            </trkpt>
            <trkpt lon="100.986878" lat="12.927780">
                <ele>54.600000</ele>
                <time>2015-03-29T03:33:54Z</time>
            </trkpt>
            <trkpt lon="100.986832" lat="12.927850">
                <ele>55.000000</ele>
                <time>2015-03-29T03:33:56Z</time>
            </trkpt>
            <trkpt lon="100.986293" lat="12.928325">
                <ele>54.200000</ele>
                <time>2015-03-29T03:34:12Z</time>
            </trkpt>
            <trkpt lon="100.986179" lat="12.928462">
                <ele>54.400000</ele>
                <time>2015-03-29T03:34:17Z</time>
            </trkpt>
            <trkpt lon="100.985921" lat="12.929531">
                <ele>52.800000</ele>
                <time>2015-03-29T03:34:45Z</time>
            </trkpt>
            <trkpt lon="100.985939" lat="12.929572">
                <ele>53.200000</ele>
                <time>2015-03-29T03:34:47Z</time>
            </trkpt>
            <trkpt lon="100.986387" lat="12.931006">
                <ele>52.800000</ele>
                <time>2015-03-29T03:35:22Z</time>
            </trkpt>
            <trkpt lon="100.984869" lat="12.931799">
                <ele>50.400000</ele>
                <time>2015-03-29T03:35:54Z</time>
            </trkpt>
            <trkpt lon="100.984843" lat="12.931823">
                <ele>50.600000</ele>
                <time>2015-03-29T03:35:56Z</time>
            </trkpt>
            <trkpt lon="100.984835" lat="12.931858">
                <ele>50.600000</ele>
                <time>2015-03-29T03:35:59Z</time>
            </trkpt>
            <trkpt lon="100.986581" lat="12.931011">
                <ele>53.800000</ele>
                <time>2015-03-29T03:37:07Z</time>
            </trkpt>
            <trkpt lon="100.986804" lat="12.931375">
                <ele>52.800000</ele>
                <time>2015-03-29T03:37:25Z</time>
            </trkpt>
            <trkpt lon="100.986610" lat="12.930988">
                <ele>53.800000</ele>
                <time>2015-03-29T03:37:46Z</time>
            </trkpt>
            <trkpt lon="100.988399" lat="12.930160">
                <ele>56.800000</ele>
                <time>2015-03-29T03:38:44Z</time>
            </trkpt>
            <trkpt lon="100.988836" lat="12.929961">
                <ele>57.400000</ele>
                <time>2015-03-29T03:39:03Z</time>
            </trkpt>
            <trkpt lon="100.989070" lat="12.930232">
                <ele>55.200000</ele>
                <time>2015-03-29T03:39:16Z</time>
            </trkpt>
            <trkpt lon="100.988731" lat="12.929950">
                <ele>56.800000</ele>
                <time>2015-03-29T03:39:42Z</time>
            </trkpt>
            <trkpt lon="100.985163" lat="12.931588">
                <ele>52.000000</ele>
                <time>2015-03-29T03:40:54Z</time>
            </trkpt>
            <trkpt lon="100.984085" lat="12.932544">
                <ele>49.200000</ele>
                <time>2015-03-29T03:42:24Z</time>
            </trkpt>
            <trkpt lon="100.984124" lat="12.932945">
                <ele>49.400000</ele>
                <time>2015-03-29T03:42:32Z</time>
            </trkpt>
            <trkpt lon="100.984514" lat="12.933643">
                <ele>47.000000</ele>
                <time>2015-03-29T03:43:07Z</time>
            </trkpt>
            <trkpt lon="100.984890" lat="12.934304">
                <ele>46.600000</ele>
                <time>2015-03-29T03:44:30Z</time>
            </trkpt>
            <trkpt lon="100.984894" lat="12.934371">
                <ele>46.600000</ele>
                <time>2015-03-29T03:44:32Z</time>
            </trkpt>
            <trkpt lon="100.984907" lat="12.934623">
                <ele>48.400000</ele>
                <time>2015-03-29T03:44:40Z</time>
            </trkpt>
            <trkpt lon="100.984908" lat="12.934695">
                <ele>48.800000</ele>
                <time>2015-03-29T03:44:42Z</time>
            </trkpt>
            <trkpt lon="100.984907" lat="12.934732">
                <ele>48.600000</ele>
                <time>2015-03-29T03:44:43Z</time>
            </trkpt>
            <trkpt lon="100.984904" lat="12.934809">
                <ele>48.600000</ele>
                <time>2015-03-29T03:44:45Z</time>
            </trkpt>
            <trkpt lon="100.984866" lat="12.934961">
                <ele>49.000000</ele>
                <time>2015-03-29T03:44:49Z</time>
            </trkpt>
            <trkpt lon="100.984826" lat="12.935077">
                <ele>48.800000</ele>
                <time>2015-03-29T03:44:52Z</time>
            </trkpt>
            <trkpt lon="100.984792" lat="12.935158">
                <ele>48.400000</ele>
                <time>2015-03-29T03:44:54Z</time>
            </trkpt>
            <trkpt lon="100.984585" lat="12.935536">
                <ele>48.600000</ele>
                <time>2015-03-29T03:45:04Z</time>
            </trkpt>
            <trkpt lon="100.984548" lat="12.935626">
                <ele>48.600000</ele>
                <time>2015-03-29T03:45:06Z</time>
            </trkpt>
            <trkpt lon="100.984519" lat="12.935722">
                <ele>48.000000</ele>
                <time>2015-03-29T03:45:08Z</time>
            </trkpt>
            <trkpt lon="100.984455" lat="12.935922">
                <ele>47.800000</ele>
                <time>2015-03-29T03:45:12Z</time>
            </trkpt>
            <trkpt lon="100.984422" lat="12.936288">
                <ele>48.800000</ele>
                <time>2015-03-29T03:45:21Z</time>
            </trkpt>
            <trkpt lon="100.985067" lat="12.936306">
                <ele>48.800000</ele>
                <time>2015-03-29T03:45:38Z</time>
            </trkpt>
            <trkpt lon="100.986461" lat="12.935809">
                <ele>50.400000</ele>
                <time>2015-03-29T03:46:09Z</time>
            </trkpt>
            <trkpt lon="100.986857" lat="12.937076">
                <ele>49.200000</ele>
                <time>2015-03-29T03:46:41Z</time>
            </trkpt>
            <trkpt lon="100.987522" lat="12.937023">
                <ele>49.800000</ele>
                <time>2015-03-29T03:47:48Z</time>
            </trkpt>
            <trkpt lon="100.987589" lat="12.937201">
                <ele>50.000000</ele>
                <time>2015-03-29T03:47:54Z</time>
            </trkpt>
            <trkpt lon="100.987620" lat="12.937367">
                <ele>49.800000</ele>
                <time>2015-03-29T03:47:58Z</time>
            </trkpt>
            <trkpt lon="100.987639" lat="12.937458">
                <ele>49.400000</ele>
                <time>2015-03-29T03:48:00Z</time>
            </trkpt>
            <trkpt lon="100.987662" lat="12.937702">
                <ele>49.400000</ele>
                <time>2015-03-29T03:48:05Z</time>
            </trkpt>
            <trkpt lon="100.987800" lat="12.938143">
                <ele>49.000000</ele>
                <time>2015-03-29T03:48:15Z</time>
            </trkpt>
            <trkpt lon="100.988014" lat="12.938231">
                <ele>49.600000</ele>
                <time>2015-03-29T03:48:20Z</time>
            </trkpt>
            <trkpt lon="100.988143" lat="12.938281">
                <ele>49.200000</ele>
                <time>2015-03-29T03:48:23Z</time>
            </trkpt>
            <trkpt lon="100.988220" lat="12.938311">
                <ele>49.200000</ele>
                <time>2015-03-29T03:48:25Z</time>
            </trkpt>
            <trkpt lon="100.988258" lat="12.938360">
                <ele>49.400000</ele>
                <time>2015-03-29T03:48:27Z</time>
            </trkpt>
            <trkpt lon="100.988237" lat="12.938403">
                <ele>50.600000</ele>
                <time>2015-03-29T03:48:29Z</time>
            </trkpt>
            <trkpt lon="100.988059" lat="12.938586">
                <ele>49.200000</ele>
                <time>2015-03-29T03:48:35Z</time>
            </trkpt>
            <trkpt lon="100.987955" lat="12.938720">
                <ele>48.600000</ele>
                <time>2015-03-29T03:48:38Z</time>
            </trkpt>
            <trkpt lon="100.987743" lat="12.938992">
                <ele>48.400000</ele>
                <time>2015-03-29T03:48:44Z</time>
            </trkpt>
            <trkpt lon="100.987664" lat="12.939084">
                <ele>48.200000</ele>
                <time>2015-03-29T03:48:46Z</time>
            </trkpt>
            <trkpt lon="100.987589" lat="12.939184">
                <ele>47.800000</ele>
                <time>2015-03-29T03:48:48Z</time>
            </trkpt>
            <trkpt lon="100.986975" lat="12.939969">
                <ele>45.600000</ele>
                <time>2015-03-29T03:49:04Z</time>
            </trkpt>
            <trkpt lon="100.986546" lat="12.940579">
                <ele>45.400000</ele>
                <time>2015-03-29T03:49:17Z</time>
            </trkpt>
            <trkpt lon="100.987954" lat="12.941358">
                <ele>48.200000</ele>
                <time>2015-03-29T03:49:54Z</time>
            </trkpt>
            <trkpt lon="100.988868" lat="12.941456">
                <ele>50.000000</ele>
                <time>2015-03-29T03:50:15Z</time>
            </trkpt>
            <trkpt lon="100.989310" lat="12.941578">
                <ele>49.600000</ele>
                <time>2015-03-29T03:50:26Z</time>
            </trkpt>
            <trkpt lon="100.989697" lat="12.942049">
                <ele>47.000000</ele>
                <time>2015-03-29T03:50:36Z</time>
            </trkpt>
            <trkpt lon="100.990093" lat="12.943210">
                <ele>48.000000</ele>
                <time>2015-03-29T03:50:56Z</time>
            </trkpt>
            <trkpt lon="100.990123" lat="12.943408">
                <ele>48.800000</ele>
                <time>2015-03-29T03:51:00Z</time>
            </trkpt>
            <trkpt lon="100.990143" lat="12.943552">
                <ele>49.200000</ele>
                <time>2015-03-29T03:51:03Z</time>
            </trkpt>
            <trkpt lon="100.990155" lat="12.943642">
                <ele>50.000000</ele>
                <time>2015-03-29T03:51:05Z</time>
            </trkpt>
            <trkpt lon="100.990160" lat="12.943728">
                <ele>50.800000</ele>
                <time>2015-03-29T03:51:07Z</time>
            </trkpt>
            <trkpt lon="100.990101" lat="12.944001">
                <ele>51.400000</ele>
                <time>2015-03-29T03:51:14Z</time>
            </trkpt>
            <trkpt lon="100.989783" lat="12.944399">
                <ele>50.600000</ele>
                <time>2015-03-29T03:51:25Z</time>
            </trkpt>
            <trkpt lon="100.989677" lat="12.944422">
                <ele>50.000000</ele>
                <time>2015-03-29T03:51:27Z</time>
            </trkpt>
            <trkpt lon="100.989560" lat="12.944444">
                <ele>49.800000</ele>
                <time>2015-03-29T03:51:29Z</time>
            </trkpt>
            <trkpt lon="100.989439" lat="12.944468">
                <ele>49.200000</ele>
                <time>2015-03-29T03:51:31Z</time>
            </trkpt>
            <trkpt lon="100.989253" lat="12.944506">
                <ele>48.600000</ele>
                <time>2015-03-29T03:51:34Z</time>
            </trkpt>
            <trkpt lon="100.989121" lat="12.944533">
                <ele>48.200000</ele>
                <time>2015-03-29T03:51:36Z</time>
            </trkpt>
            <trkpt lon="100.988981" lat="12.944555">
                <ele>48.000000</ele>
                <time>2015-03-29T03:51:38Z</time>
            </trkpt>
            <trkpt lon="100.988019" lat="12.944800">
                <ele>48.200000</ele>
                <time>2015-03-29T03:51:53Z</time>
            </trkpt>
            <trkpt lon="100.987346" lat="12.945935">
                <ele>48.800000</ele>
                <time>2015-03-29T03:52:17Z</time>
            </trkpt>
            <trkpt lon="100.986754" lat="12.946274">
                <ele>50.600000</ele>
                <time>2015-03-29T03:52:30Z</time>
            </trkpt>
            <trkpt lon="100.986712" lat="12.946299">
                <ele>50.600000</ele>
                <time>2015-03-29T03:52:31Z</time>
            </trkpt>
            <trkpt lon="100.986629" lat="12.946347">
                <ele>51.200000</ele>
                <time>2015-03-29T03:52:33Z</time>
            </trkpt>
            <trkpt lon="100.986553" lat="12.946393">
                <ele>51.600000</ele>
                <time>2015-03-29T03:52:35Z</time>
            </trkpt>
            <trkpt lon="100.986484" lat="12.946437">
                <ele>52.000000</ele>
                <time>2015-03-29T03:52:37Z</time>
            </trkpt>
            <trkpt lon="100.986170" lat="12.946671">
                <ele>53.800000</ele>
                <time>2015-03-29T03:52:47Z</time>
            </trkpt>
            <trkpt lon="100.985919" lat="12.946911">
                <ele>55.000000</ele>
                <time>2015-03-29T03:52:56Z</time>
            </trkpt>
            <trkpt lon="100.985892" lat="12.946937">
                <ele>55.000000</ele>
                <time>2015-03-29T03:52:57Z</time>
            </trkpt>
            <trkpt lon="100.985839" lat="12.946987">
                <ele>55.400000</ele>
                <time>2015-03-29T03:52:59Z</time>
            </trkpt>
            <trkpt lon="100.985808" lat="12.947008">
                <ele>55.400000</ele>
                <time>2015-03-29T03:53:00Z</time>
            </trkpt>
            <trkpt lon="100.985761" lat="12.947061">
                <ele>56.000000</ele>
                <time>2015-03-29T03:53:02Z</time>
            </trkpt>
            <trkpt lon="100.985739" lat="12.947088">
                <ele>56.000000</ele>
                <time>2015-03-29T03:53:03Z</time>
            </trkpt>
            <trkpt lon="100.985699" lat="12.947144">
                <ele>56.400000</ele>
                <time>2015-03-29T03:53:05Z</time>
            </trkpt>
            <trkpt lon="100.985480" lat="12.947784">
                <ele>57.200000</ele>
                <time>2015-03-29T03:53:23Z</time>
            </trkpt>
            <trkpt lon="100.984659" lat="12.949318">
                <ele>54.800000</ele>
                <time>2015-03-29T03:53:55Z</time>
            </trkpt>
            <trkpt lon="100.984324" lat="12.950271">
                <ele>54.000000</ele>
                <time>2015-03-29T03:54:11Z</time>
            </trkpt>
            <trkpt lon="100.982414" lat="12.952164">
                <ele>47.800000</ele>
                <time>2015-03-29T03:56:02Z</time>
            </trkpt>
            <trkpt lon="100.982276" lat="12.952678">
                <ele>48.200000</ele>
                <time>2015-03-29T03:58:34Z</time>
            </trkpt>
            <trkpt lon="100.982411" lat="12.952696">
                <ele>48.000000</ele>
                <time>2015-03-29T03:58:43Z</time>
            </trkpt>
            <trkpt lon="100.982490" lat="12.952858">
                <ele>48.000000</ele>
                <time>2015-03-29T03:58:48Z</time>
            </trkpt>
            <trkpt lon="100.982395" lat="12.952203">
                <ele>49.000000</ele>
                <time>2015-03-29T04:11:19Z</time>
            </trkpt>
            <trkpt lon="100.982356" lat="12.952292">
                <ele>49.200000</ele>
                <time>2015-03-29T04:11:23Z</time>
            </trkpt>
            <trkpt lon="100.982315" lat="12.952338">
                <ele>49.000000</ele>
                <time>2015-03-29T04:11:25Z</time>
            </trkpt>
            <trkpt lon="100.982269" lat="12.952391">
                <ele>49.000000</ele>
                <time>2015-03-29T04:11:27Z</time>
            </trkpt>
            <trkpt lon="100.982215" lat="12.952454">
                <ele>48.800000</ele>
                <time>2015-03-29T04:11:29Z</time>
            </trkpt>
            <trkpt lon="100.982153" lat="12.952526">
                <ele>48.800000</ele>
                <time>2015-03-29T04:11:31Z</time>
            </trkpt>
            <trkpt lon="100.982091" lat="12.952602">
                <ele>50.200000</ele>
                <time>2015-03-29T04:11:33Z</time>
            </trkpt>
            <trkpt lon="100.981989" lat="12.952720">
                <ele>49.200000</ele>
                <time>2015-03-29T04:11:36Z</time>
            </trkpt>
            <trkpt lon="100.981782" lat="12.953012">
                <ele>49.000000</ele>
                <time>2015-03-29T04:11:42Z</time>
            </trkpt>
            <trkpt lon="100.981724" lat="12.953101">
                <ele>44.200000</ele>
                <time>2015-03-29T04:11:44Z</time>
            </trkpt>
            <trkpt lon="100.981599" lat="12.953204">
                <ele>45.200000</ele>
                <time>2015-03-29T04:11:47Z</time>
            </trkpt>
            <trkpt lon="100.980886" lat="12.953271">
                <ele>44.200000</ele>
                <time>2015-03-29T04:12:00Z</time>
            </trkpt>
            <trkpt lon="100.980108" lat="12.952962">
                <ele>43.200000</ele>
                <time>2015-03-29T04:12:14Z</time>
            </trkpt>
            <trkpt lon="100.979509" lat="12.952543">
                <ele>43.400000</ele>
                <time>2015-03-29T04:12:26Z</time>
            </trkpt>
            <trkpt lon="100.979356" lat="12.952314">
                <ele>43.000000</ele>
                <time>2015-03-29T04:12:31Z</time>
            </trkpt>
            <trkpt lon="100.978654" lat="12.951977">
                <ele>40.000000</ele>
                <time>2015-03-29T04:12:44Z</time>
            </trkpt>
            <trkpt lon="100.978349" lat="12.951616">
                <ele>39.400000</ele>
                <time>2015-03-29T04:12:51Z</time>
            </trkpt>
            <trkpt lon="100.978252" lat="12.951180">
                <ele>39.200000</ele>
                <time>2015-03-29T04:12:58Z</time>
            </trkpt>
            <trkpt lon="100.977229" lat="12.950515">
                <ele>38.800000</ele>
                <time>2015-03-29T04:13:20Z</time>
            </trkpt>
            <trkpt lon="100.977141" lat="12.950478">
                <ele>39.000000</ele>
                <time>2015-03-29T04:13:22Z</time>
            </trkpt>
            <trkpt lon="100.977059" lat="12.950439">
                <ele>39.000000</ele>
                <time>2015-03-29T04:13:24Z</time>
            </trkpt>
            <trkpt lon="100.976978" lat="12.950402">
                <ele>38.800000</ele>
                <time>2015-03-29T04:13:26Z</time>
            </trkpt>
            <trkpt lon="100.976902" lat="12.950367">
                <ele>39.000000</ele>
                <time>2015-03-29T04:13:28Z</time>
            </trkpt>
            <trkpt lon="100.976796" lat="12.950321">
                <ele>39.200000</ele>
                <time>2015-03-29T04:13:31Z</time>
            </trkpt>
            <trkpt lon="100.976610" lat="12.950256">
                <ele>39.000000</ele>
                <time>2015-03-29T04:13:36Z</time>
            </trkpt>
            <trkpt lon="100.976554" lat="12.950227">
                <ele>39.200000</ele>
                <time>2015-03-29T04:13:38Z</time>
            </trkpt>
            <trkpt lon="100.976520" lat="12.950217">
                <ele>39.600000</ele>
                <time>2015-03-29T04:13:40Z</time>
            </trkpt>
            <trkpt lon="100.977724" lat="12.950701">
                <ele>40.000000</ele>
                <time>2015-03-29T04:14:08Z</time>
            </trkpt>
            <trkpt lon="100.978267" lat="12.951183">
                <ele>39.800000</ele>
                <time>2015-03-29T04:14:22Z</time>
            </trkpt>
            <trkpt lon="100.978479" lat="12.951813">
                <ele>41.400000</ele>
                <time>2015-03-29T04:14:36Z</time>
            </trkpt>
            <trkpt lon="100.978814" lat="12.952050">
                <ele>41.800000</ele>
                <time>2015-03-29T04:14:45Z</time>
            </trkpt>
            <trkpt lon="100.978852" lat="12.952092">
                <ele>42.200000</ele>
                <time>2015-03-29T04:14:47Z</time>
            </trkpt>
            <trkpt lon="100.978848" lat="12.952138">
                <ele>42.400000</ele>
                <time>2015-03-29T04:14:49Z</time>
            </trkpt>
            <trkpt lon="100.978527" lat="12.952955">
                <ele>39.000000</ele>
                <time>2015-03-29T04:15:13Z</time>
            </trkpt>
            <trkpt lon="100.978417" lat="12.953031">
                <ele>41.000000</ele>
                <time>2015-03-29T04:15:19Z</time>
            </trkpt>
            <trkpt lon="100.978144" lat="12.952902">
                <ele>39.800000</ele>
                <time>2015-03-29T04:15:27Z</time>
            </trkpt>
            <trkpt lon="100.977465" lat="12.953770">
                <ele>40.000000</ele>
                <time>2015-03-29T04:15:49Z</time>
            </trkpt>
            <trkpt lon="100.975425" lat="12.954396">
                <ele>45.400000</ele>
                <time>2015-03-29T04:18:47Z</time>
            </trkpt>
            <trkpt lon="100.975445" lat="12.954493">
                <ele>47.400000</ele>
                <time>2015-03-29T04:18:53Z</time>
            </trkpt>
            <trkpt lon="100.976001" lat="12.955030">
                <ele>48.400000</ele>
                <time>2015-03-29T04:19:14Z</time>
            </trkpt>
            <trkpt lon="100.975228" lat="12.954502">
                <ele>50.200000</ele>
                <time>2015-03-29T04:19:37Z</time>
            </trkpt>
            <trkpt lon="100.975152" lat="12.954491">
                <ele>50.200000</ele>
                <time>2015-03-29T04:19:39Z</time>
            </trkpt>
            <trkpt lon="100.973949" lat="12.954829">
                <ele>57.000000</ele>
                <time>2015-03-29T04:20:17Z</time>
            </trkpt>
            <trkpt lon="100.973532" lat="12.954983">
                <ele>57.600000</ele>
                <time>2015-03-29T04:20:30Z</time>
            </trkpt>
            <trkpt lon="100.972463" lat="12.955396">
                <ele>55.400000</ele>
                <time>2015-03-29T04:20:56Z</time>
            </trkpt>
            <trkpt lon="100.972335" lat="12.955457">
                <ele>53.400000</ele>
                <time>2015-03-29T04:20:58Z</time>
            </trkpt>
            <trkpt lon="100.972185" lat="12.955539">
                <ele>52.000000</ele>
                <time>2015-03-29T04:21:00Z</time>
            </trkpt>
            <trkpt lon="100.972019" lat="12.955631">
                <ele>50.400000</ele>
                <time>2015-03-29T04:21:02Z</time>
            </trkpt>
            <trkpt lon="100.971842" lat="12.955734">
                <ele>49.000000</ele>
                <time>2015-03-29T04:21:04Z</time>
            </trkpt>
            <trkpt lon="100.971659" lat="12.955841">
                <ele>46.800000</ele>
                <time>2015-03-29T04:21:06Z</time>
            </trkpt>
            <trkpt lon="100.971465" lat="12.955949">
                <ele>46.200000</ele>
                <time>2015-03-29T04:21:08Z</time>
            </trkpt>
            <trkpt lon="100.971268" lat="12.956057">
                <ele>44.200000</ele>
                <time>2015-03-29T04:21:10Z</time>
            </trkpt>
            <trkpt lon="100.967025" lat="12.958532">
                <ele>43.800000</ele>
                <time>2015-03-29T04:22:01Z</time>
            </trkpt>
            <trkpt lon="100.964497" lat="12.960163">
                <ele>47.000000</ele>
                <time>2015-03-29T04:22:42Z</time>
            </trkpt>
            <trkpt lon="100.962482" lat="12.960285">
                <ele>49.800000</ele>
                <time>2015-03-29T04:23:33Z</time>
            </trkpt>
            <trkpt lon="100.961284" lat="12.960462">
                <ele>45.800000</ele>
                <time>2015-03-29T04:23:59Z</time>
            </trkpt>
            <trkpt lon="100.959057" lat="12.960507">
                <ele>40.800000</ele>
                <time>2015-03-29T04:24:38Z</time>
            </trkpt>
            <trkpt lon="100.958304" lat="12.960174">
                <ele>37.400000</ele>
                <time>2015-03-29T04:24:53Z</time>
            </trkpt>
            <trkpt lon="100.957755" lat="12.959963">
                <ele>32.400000</ele>
                <time>2015-03-29T04:25:01Z</time>
            </trkpt>
            <trkpt lon="100.957223" lat="12.959861">
                <ele>30.600000</ele>
                <time>2015-03-29T04:25:08Z</time>
            </trkpt>
            <trkpt lon="100.956838" lat="12.959948">
                <ele>29.000000</ele>
                <time>2015-03-29T04:25:14Z</time>
            </trkpt>
            <trkpt lon="100.956402" lat="12.960218">
                <ele>25.400000</ele>
                <time>2015-03-29T04:25:22Z</time>
            </trkpt>
            <trkpt lon="100.956084" lat="12.960573">
                <ele>26.200000</ele>
                <time>2015-03-29T04:25:29Z</time>
            </trkpt>
            <trkpt lon="100.953955" lat="12.962409">
                <ele>16.800000</ele>
                <time>2015-03-29T04:26:03Z</time>
            </trkpt>
            <trkpt lon="100.953884" lat="12.962470">
                <ele>17.800000</ele>
                <time>2015-03-29T04:26:05Z</time>
            </trkpt>
            <trkpt lon="100.953874" lat="12.962527">
                <ele>18.800000</ele>
                <time>2015-03-29T04:26:07Z</time>
            </trkpt>
            <trkpt lon="100.953906" lat="12.962569">
                <ele>18.600000</ele>
                <time>2015-03-29T04:26:09Z</time>
            </trkpt>
            <trkpt lon="100.953932" lat="12.962603">
                <ele>18.800000</ele>
                <time>2015-03-29T04:26:11Z</time>
            </trkpt>
            <trkpt lon="100.953940" lat="12.962635">
                <ele>19.000000</ele>
                <time>2015-03-29T04:26:13Z</time>
            </trkpt>
            <trkpt lon="100.953913" lat="12.962649">
                <ele>19.000000</ele>
                <time>2015-03-29T04:26:15Z</time>
            </trkpt>
            <trkpt lon="100.953904" lat="12.962241">
                <ele>19.800000</ele>
                <time>2015-03-29T04:30:39Z</time>
            </trkpt>
            <trkpt lon="100.954019" lat="12.962171">
                <ele>20.000000</ele>
                <time>2015-03-29T04:30:45Z</time>
            </trkpt>
            <trkpt lon="100.954088" lat="12.962142">
                <ele>20.200000</ele>
                <time>2015-03-29T04:30:48Z</time>
            </trkpt>
            <trkpt lon="100.954133" lat="12.962104">
                <ele>20.400000</ele>
                <time>2015-03-29T04:30:50Z</time>
            </trkpt>
            <trkpt lon="100.954239" lat="12.961998">
                <ele>20.800000</ele>
                <time>2015-03-29T04:30:55Z</time>
            </trkpt>
            <trkpt lon="100.954382" lat="12.961752">
                <ele>21.400000</ele>
                <time>2015-03-29T04:31:06Z</time>
            </trkpt>
            <trkpt lon="100.954572" lat="12.961796">
                <ele>22.000000</ele>
                <time>2015-03-29T04:31:15Z</time>
            </trkpt>
            <trkpt lon="100.954592" lat="12.961782">
                <ele>22.000000</ele>
                <time>2015-03-29T04:31:17Z</time>
            </trkpt>
            <trkpt lon="100.954593" lat="12.961761">
                <ele>22.200000</ele>
                <time>2015-03-29T04:31:19Z</time>
            </trkpt>
            <trkpt lon="100.954543" lat="12.961727">
                <ele>22.000000</ele>
                <time>2015-03-29T04:31:22Z</time>
            </trkpt>
            <trkpt lon="100.954488" lat="12.961693">
                <ele>21.400000</ele>
                <time>2015-03-29T04:31:24Z</time>
            </trkpt>
            <trkpt lon="100.954390" lat="12.961639">
                <ele>21.200000</ele>
                <time>2015-03-29T04:31:27Z</time>
            </trkpt>
            <trkpt lon="100.954205" lat="12.961479">
                <ele>22.000000</ele>
                <time>2015-03-29T04:31:35Z</time>
            </trkpt>
            <trkpt lon="100.954209" lat="12.961374">
                <ele>21.400000</ele>
                <time>2015-03-29T04:31:38Z</time>
            </trkpt>
            <trkpt lon="100.954232" lat="12.961249">
                <ele>21.200000</ele>
                <time>2015-03-29T04:31:41Z</time>
            </trkpt>
            <trkpt lon="100.954242" lat="12.961156">
                <ele>21.200000</ele>
                <time>2015-03-29T04:31:43Z</time>
            </trkpt>
            <trkpt lon="100.954256" lat="12.961060">
                <ele>20.800000</ele>
                <time>2015-03-29T04:31:45Z</time>
            </trkpt>
            <trkpt lon="100.954272" lat="12.960731">
                <ele>22.200000</ele>
                <time>2015-03-29T04:31:54Z</time>
            </trkpt>
            <trkpt lon="100.954066" lat="12.960311">
                <ele>22.600000</ele>
                <time>2015-03-29T04:32:06Z</time>
            </trkpt>
            <trkpt lon="100.954098" lat="12.959388">
                <ele>23.600000</ele>
                <time>2015-03-29T04:32:34Z</time>
            </trkpt>
            <trkpt lon="100.953830" lat="12.959072">
                <ele>22.600000</ele>
                <time>2015-03-29T04:32:45Z</time>
            </trkpt>
            <trkpt lon="100.953987" lat="12.958251">
                <ele>24.600000</ele>
                <time>2015-03-29T04:33:02Z</time>
            </trkpt>
            <trkpt lon="100.954203" lat="12.958016">
                <ele>25.200000</ele>
                <time>2015-03-29T04:33:10Z</time>
            </trkpt>
            <trkpt lon="100.954656" lat="12.956704">
                <ele>27.000000</ele>
                <time>2015-03-29T04:33:39Z</time>
            </trkpt>
            <trkpt lon="100.955598" lat="12.954476">
                <ele>25.600000</ele>
                <time>2015-03-29T04:34:21Z</time>
            </trkpt>
            <trkpt lon="100.956107" lat="12.953877">
                <ele>26.400000</ele>
                <time>2015-03-29T04:34:35Z</time>
            </trkpt>
            <trkpt lon="100.956927" lat="12.953384">
                <ele>29.200000</ele>
                <time>2015-03-29T04:34:54Z</time>
            </trkpt>
            <trkpt lon="100.957005" lat="12.953335">
                <ele>28.600000</ele>
                <time>2015-03-29T04:34:57Z</time>
            </trkpt>
            <trkpt lon="100.957772" lat="12.952893">
                <ele>29.800000</ele>
                <time>2015-03-29T04:35:21Z</time>
            </trkpt>
            <trkpt lon="100.958286" lat="12.952601">
                <ele>32.400000</ele>
                <time>2015-03-29T04:35:42Z</time>
            </trkpt>
            <trkpt lon="100.958515" lat="12.952294">
                <ele>32.400000</ele>
                <time>2015-03-29T04:35:52Z</time>
            </trkpt>
            <trkpt lon="100.958461" lat="12.951526">
                <ele>33.600000</ele>
                <time>2015-03-29T04:36:52Z</time>
            </trkpt>
            <trkpt lon="100.958632" lat="12.950753">
                <ele>35.600000</ele>
                <time>2015-03-29T04:37:43Z</time>
            </trkpt>
            <trkpt lon="100.958218" lat="12.950586">
                <ele>38.400000</ele>
                <time>2015-03-29T04:38:28Z</time>
            </trkpt>
            <trkpt lon="100.957391" lat="12.950406">
                <ele>38.400000</ele>
                <time>2015-03-29T04:38:51Z</time>
            </trkpt>
            <trkpt lon="100.957031" lat="12.950485">
                <ele>39.000000</ele>
                <time>2015-03-29T04:39:00Z</time>
            </trkpt>
            <trkpt lon="100.956950" lat="12.950519">
                <ele>38.000000</ele>
                <time>2015-03-29T04:39:02Z</time>
            </trkpt>
            <trkpt lon="100.956859" lat="12.950555">
                <ele>37.800000</ele>
                <time>2015-03-29T04:39:04Z</time>
            </trkpt>
            <trkpt lon="100.956202" lat="12.950590">
                <ele>38.600000</ele>
                <time>2015-03-29T04:39:19Z</time>
            </trkpt>
            <trkpt lon="100.956438" lat="12.949511">
                <ele>42.000000</ele>
                <time>2015-03-29T04:39:54Z</time>
            </trkpt>
            <trkpt lon="100.955925" lat="12.948335">
                <ele>45.600000</ele>
                <time>2015-03-29T04:40:27Z</time>
            </trkpt>
            <trkpt lon="100.955717" lat="12.947584">
                <ele>43.800000</ele>
                <time>2015-03-29T04:40:43Z</time>
            </trkpt>
            <trkpt lon="100.955059" lat="12.947296">
                <ele>44.200000</ele>
                <time>2015-03-29T04:40:56Z</time>
            </trkpt>
            <trkpt lon="100.955010" lat="12.947301">
                <ele>44.000000</ele>
                <time>2015-03-29T04:40:57Z</time>
            </trkpt>
            <trkpt lon="100.954944" lat="12.947292">
                <ele>44.400000</ele>
                <time>2015-03-29T04:40:59Z</time>
            </trkpt>
            <trkpt lon="100.954761" lat="12.947113">
                <ele>44.000000</ele>
                <time>2015-03-29T04:41:05Z</time>
            </trkpt>
            <trkpt lon="100.954515" lat="12.946376">
                <ele>42.400000</ele>
                <time>2015-03-29T04:41:21Z</time>
            </trkpt>
            <trkpt lon="100.954756" lat="12.946132">
                <ele>41.600000</ele>
                <time>2015-03-29T04:41:28Z</time>
            </trkpt>
            <trkpt lon="100.954783" lat="12.946103">
                <ele>42.800000</ele>
                <time>2015-03-29T04:41:30Z</time>
            </trkpt>
            <trkpt lon="100.954731" lat="12.945975">
                <ele>42.000000</ele>
                <time>2015-03-29T04:41:49Z</time>
            </trkpt>
            <trkpt lon="100.954893" lat="12.945786">
                <ele>42.200000</ele>
                <time>2015-03-29T04:42:06Z</time>
            </trkpt>
            <trkpt lon="100.954926" lat="12.945730">
                <ele>41.800000</ele>
                <time>2015-03-29T04:42:10Z</time>
            </trkpt>
            <trkpt lon="100.954965" lat="12.945689">
                <ele>42.000000</ele>
                <time>2015-03-29T04:42:13Z</time>
            </trkpt>
            <trkpt lon="100.955142" lat="12.945467">
                <ele>41.200000</ele>
                <time>2015-03-29T04:42:52Z</time>
            </trkpt>
            <trkpt lon="100.955264" lat="12.945350">
                <ele>41.000000</ele>
                <time>2015-03-29T04:43:01Z</time>
            </trkpt>
            <trkpt lon="100.955490" lat="12.945225">
                <ele>41.200000</ele>
                <time>2015-03-29T04:43:20Z</time>
            </trkpt>
            <trkpt lon="100.955492" lat="12.945198">
                <ele>40.800000</ele>
                <time>2015-03-29T04:43:21Z</time>
            </trkpt>
            <trkpt lon="100.955486" lat="12.945128">
                <ele>40.400000</ele>
                <time>2015-03-29T04:43:23Z</time>
            </trkpt>
            <trkpt lon="100.955481" lat="12.945040">
                <ele>39.800000</ele>
                <time>2015-03-29T04:43:25Z</time>
            </trkpt>
            <trkpt lon="100.955487" lat="12.944946">
                <ele>39.800000</ele>
                <time>2015-03-29T04:43:27Z</time>
            </trkpt>
            <trkpt lon="100.955493" lat="12.944792">
                <ele>39.200000</ele>
                <time>2015-03-29T04:43:30Z</time>
            </trkpt>
            <trkpt lon="100.955491" lat="12.944681">
                <ele>39.600000</ele>
                <time>2015-03-29T04:43:32Z</time>
            </trkpt>
            <trkpt lon="100.955479" lat="12.944505">
                <ele>39.000000</ele>
                <time>2015-03-29T04:43:35Z</time>
            </trkpt>
            <trkpt lon="100.955464" lat="12.944325">
                <ele>39.400000</ele>
                <time>2015-03-29T04:43:38Z</time>
            </trkpt>
            <trkpt lon="100.955447" lat="12.943956">
                <ele>37.400000</ele>
                <time>2015-03-29T04:43:44Z</time>
            </trkpt>
            <trkpt lon="100.955467" lat="12.943549">
                <ele>37.800000</ele>
                <time>2015-03-29T04:43:53Z</time>
            </trkpt>
            <trkpt lon="100.956150" lat="12.943468">
                <ele>38.400000</ele>
                <time>2015-03-29T04:44:10Z</time>
            </trkpt>
            <trkpt lon="100.956249" lat="12.943413">
                <ele>38.000000</ele>
                <time>2015-03-29T04:44:13Z</time>
            </trkpt>
            <trkpt lon="100.956211" lat="12.942732">
                <ele>36.000000</ele>
                <time>2015-03-29T04:44:26Z</time>
            </trkpt>
            <trkpt lon="100.956161" lat="12.942219">
                <ele>35.400000</ele>
                <time>2015-03-29T04:44:34Z</time>
            </trkpt>
            <trkpt lon="100.956055" lat="12.941139">
                <ele>33.400000</ele>
                <time>2015-03-29T04:44:50Z</time>
            </trkpt>
            <trkpt lon="100.955895" lat="12.940086">
                <ele>33.400000</ele>
                <time>2015-03-29T04:45:09Z</time>
            </trkpt>
            <trkpt lon="100.956260" lat="12.940193">
                <ele>33.400000</ele>
                <time>2015-03-29T04:45:21Z</time>
            </trkpt>
            <trkpt lon="100.956763" lat="12.940004">
                <ele>35.600000</ele>
                <time>2015-03-29T04:45:36Z</time>
            </trkpt>
            <trkpt lon="100.957402" lat="12.939937">
                <ele>37.200000</ele>
                <time>2015-03-29T04:45:52Z</time>
            </trkpt>
            <trkpt lon="100.957570" lat="12.939955">
                <ele>37.200000</ele>
                <time>2015-03-29T04:45:56Z</time>
            </trkpt>
            <trkpt lon="100.957834" lat="12.940677">
                <ele>39.400000</ele>
                <time>2015-03-29T04:46:15Z</time>
            </trkpt>
            <trkpt lon="100.957939" lat="12.940825">
                <ele>39.800000</ele>
                <time>2015-03-29T04:46:20Z</time>
            </trkpt>
            <trkpt lon="100.958447" lat="12.940639">
                <ele>41.200000</ele>
                <time>2015-03-29T04:46:36Z</time>
            </trkpt>
            <trkpt lon="100.958291" lat="12.939591">
                <ele>38.600000</ele>
                <time>2015-03-29T04:46:54Z</time>
            </trkpt>
            <trkpt lon="100.958268" lat="12.939443">
                <ele>38.000000</ele>
                <time>2015-03-29T04:46:56Z</time>
            </trkpt>
            <trkpt lon="100.958242" lat="12.939293">
                <ele>36.800000</ele>
                <time>2015-03-29T04:46:58Z</time>
            </trkpt>
            <trkpt lon="100.958218" lat="12.939138">
                <ele>36.000000</ele>
                <time>2015-03-29T04:47:00Z</time>
            </trkpt>
            <trkpt lon="100.958191" lat="12.938983">
                <ele>36.000000</ele>
                <time>2015-03-29T04:47:02Z</time>
            </trkpt>
            <trkpt lon="100.958165" lat="12.938823">
                <ele>34.000000</ele>
                <time>2015-03-29T04:47:04Z</time>
            </trkpt>
            <trkpt lon="100.958133" lat="12.938582">
                <ele>34.000000</ele>
                <time>2015-03-29T04:47:07Z</time>
            </trkpt>
            <trkpt lon="100.958086" lat="12.938334">
                <ele>34.200000</ele>
                <time>2015-03-29T04:47:10Z</time>
            </trkpt>
            <trkpt lon="100.958028" lat="12.937998">
                <ele>33.200000</ele>
                <time>2015-03-29T04:47:14Z</time>
            </trkpt>
            <trkpt lon="100.958000" lat="12.937829">
                <ele>33.000000</ele>
                <time>2015-03-29T04:47:16Z</time>
            </trkpt>
            <trkpt lon="100.957912" lat="12.937324">
                <ele>31.800000</ele>
                <time>2015-03-29T04:47:22Z</time>
            </trkpt>
            <trkpt lon="100.957867" lat="12.937067">
                <ele>30.400000</ele>
                <time>2015-03-29T04:47:25Z</time>
            </trkpt>
            <trkpt lon="100.957837" lat="12.936893">
                <ele>29.800000</ele>
                <time>2015-03-29T04:47:27Z</time>
            </trkpt>
            <trkpt lon="100.957806" lat="12.936720">
                <ele>30.400000</ele>
                <time>2015-03-29T04:47:29Z</time>
            </trkpt>
            <trkpt lon="100.957772" lat="12.936546">
                <ele>29.600000</ele>
                <time>2015-03-29T04:47:31Z</time>
            </trkpt>
            <trkpt lon="100.957670" lat="12.936115">
                <ele>28.800000</ele>
                <time>2015-03-29T04:47:36Z</time>
            </trkpt>
            <trkpt lon="100.957530" lat="12.935078">
                <ele>31.800000</ele>
                <time>2015-03-29T04:49:13Z</time>
            </trkpt>
            <trkpt lon="100.957517" lat="12.935410">
                <ele>31.400000</ele>
                <time>2015-03-29T04:49:21Z</time>
            </trkpt>
            <trkpt lon="100.957105" lat="12.935524">
                <ele>31.600000</ele>
                <time>2015-03-29T04:50:09Z</time>
            </trkpt>
            <trkpt lon="100.956502" lat="12.935372">
                <ele>30.400000</ele>
                <time>2015-03-29T04:50:26Z</time>
            </trkpt>
            <trkpt lon="100.956335" lat="12.935303">
                <ele>31.400000</ele>
                <time>2015-03-29T04:50:30Z</time>
            </trkpt>
            <trkpt lon="100.955970" lat="12.934852">
                <ele>29.600000</ele>
                <time>2015-03-29T04:50:44Z</time>
            </trkpt>
            <trkpt lon="100.955878" lat="12.934682">
                <ele>29.800000</ele>
                <time>2015-03-29T04:50:48Z</time>
            </trkpt>
            <trkpt lon="100.955565" lat="12.933330">
                <ele>27.600000</ele>
                <time>2015-03-29T04:51:14Z</time>
            </trkpt>
            <trkpt lon="100.955300" lat="12.931373">
                <ele>28.400000</ele>
                <time>2015-03-29T04:51:49Z</time>
            </trkpt>
            <trkpt lon="100.955206" lat="12.931027">
                <ele>25.600000</ele>
                <time>2015-03-29T04:51:57Z</time>
            </trkpt>
            <trkpt lon="100.955187" lat="12.930871">
                <ele>25.600000</ele>
                <time>2015-03-29T04:51:59Z</time>
            </trkpt>
            <trkpt lon="100.955311" lat="12.929725">
                <ele>29.400000</ele>
                <time>2015-03-29T04:52:23Z</time>
            </trkpt>
            <trkpt lon="100.955549" lat="12.928838">
                <ele>29.200000</ele>
                <time>2015-03-29T04:52:44Z</time>
            </trkpt>
            <trkpt lon="100.956182" lat="12.927575">
                <ele>30.600000</ele>
                <time>2015-03-29T04:53:25Z</time>
            </trkpt>
            <trkpt lon="100.956032" lat="12.922507">
                <ele>41.400000</ele>
                <time>2015-03-29T04:55:30Z</time>
            </trkpt>
            <trkpt lon="100.956512" lat="12.921505">
                <ele>44.000000</ele>
                <time>2015-03-29T04:56:03Z</time>
            </trkpt>
            <trkpt lon="100.956423" lat="12.920185">
                <ele>49.200000</ele>
                <time>2015-03-29T04:56:41Z</time>
            </trkpt>
            <trkpt lon="100.955756" lat="12.917017">
                <ele>53.800000</ele>
                <time>2015-03-29T04:57:59Z</time>
            </trkpt>
            <trkpt lon="100.955534" lat="12.915861">
                <ele>52.600000</ele>
                <time>2015-03-29T04:58:20Z</time>
            </trkpt>
            <trkpt lon="100.954574" lat="12.914572">
                <ele>52.400000</ele>
                <time>2015-03-29T04:58:46Z</time>
            </trkpt>
            <trkpt lon="100.954578" lat="12.914440">
                <ele>52.400000</ele>
                <time>2015-03-29T04:58:48Z</time>
            </trkpt>
            <trkpt lon="100.954602" lat="12.914302">
                <ele>52.200000</ele>
                <time>2015-03-29T04:58:50Z</time>
            </trkpt>
            <trkpt lon="100.954622" lat="12.914156">
                <ele>51.800000</ele>
                <time>2015-03-29T04:58:52Z</time>
            </trkpt>
            <trkpt lon="100.954679" lat="12.913715">
                <ele>51.400000</ele>
                <time>2015-03-29T04:58:58Z</time>
            </trkpt>
            <trkpt lon="100.955395" lat="12.912523">
                <ele>47.000000</ele>
                <time>2015-03-29T04:59:18Z</time>
            </trkpt>
            <trkpt lon="100.956188" lat="12.910121">
                <ele>40.200000</ele>
                <time>2015-03-29T04:59:54Z</time>
            </trkpt>
            <trkpt lon="100.957144" lat="12.909646">
                <ele>37.600000</ele>
                <time>2015-03-29T05:00:11Z</time>
            </trkpt>
            <trkpt lon="100.957811" lat="12.909664">
                <ele>38.000000</ele>
                <time>2015-03-29T05:00:22Z</time>
            </trkpt>
            <trkpt lon="100.957883" lat="12.909586">
                <ele>39.000000</ele>
                <time>2015-03-29T05:00:24Z</time>
            </trkpt>
            <trkpt lon="100.957951" lat="12.909456">
                <ele>39.800000</ele>
                <time>2015-03-29T05:00:27Z</time>
            </trkpt>
            <trkpt lon="100.958448" lat="12.907291">
                <ele>34.600000</ele>
                <time>2015-03-29T05:01:05Z</time>
            </trkpt>
            <trkpt lon="100.958469" lat="12.907258">
                <ele>35.200000</ele>
                <time>2015-03-29T05:01:07Z</time>
            </trkpt>
            <trkpt lon="100.958479" lat="12.907236">
                <ele>35.400000</ele>
                <time>2015-03-29T05:01:09Z</time>
            </trkpt>
            <trkpt lon="100.959354" lat="12.906811">
                <ele>36.600000</ele>
                <time>2015-03-29T05:01:51Z</time>
            </trkpt>
            <trkpt lon="100.959739" lat="12.906163">
                <ele>38.000000</ele>
                <time>2015-03-29T05:02:16Z</time>
            </trkpt>
            <trkpt lon="100.960274" lat="12.905648">
                <ele>39.800000</ele>
                <time>2015-03-29T05:02:40Z</time>
            </trkpt>
            <trkpt lon="100.961254" lat="12.905548">
                <ele>40.400000</ele>
                <time>2015-03-29T05:03:11Z</time>
            </trkpt>
            <trkpt lon="100.961584" lat="12.905685">
                <ele>41.600000</ele>
                <time>2015-03-29T05:03:23Z</time>
            </trkpt>
            <trkpt lon="100.961707" lat="12.905683">
                <ele>41.200000</ele>
                <time>2015-03-29T05:03:27Z</time>
            </trkpt>
            <trkpt lon="100.962171" lat="12.905458">
                <ele>43.000000</ele>
                <time>2015-03-29T05:03:47Z</time>
            </trkpt>
            <trkpt lon="100.962187" lat="12.905444">
                <ele>42.800000</ele>
                <time>2015-03-29T05:03:48Z</time>
            </trkpt>
            <trkpt lon="100.962239" lat="12.905417">
                <ele>43.200000</ele>
                <time>2015-03-29T05:03:51Z</time>
            </trkpt>
            <trkpt lon="100.962255" lat="12.905413">
                <ele>43.200000</ele>
                <time>2015-03-29T05:03:52Z</time>
            </trkpt>
            <trkpt lon="100.962377" lat="12.905358">
                <ele>44.600000</ele>
                <time>2015-03-29T05:04:00Z</time>
            </trkpt>
            <trkpt lon="100.962390" lat="12.905354">
                <ele>44.600000</ele>
                <time>2015-03-29T05:04:01Z</time>
            </trkpt>
            <trkpt lon="100.962417" lat="12.905343">
                <ele>45.200000</ele>
                <time>2015-03-29T05:04:03Z</time>
            </trkpt>
            <trkpt lon="100.962433" lat="12.905338">
                <ele>45.000000</ele>
                <time>2015-03-29T05:04:04Z</time>
            </trkpt>
            <trkpt lon="100.962719" lat="12.905268">
                <ele>47.200000</ele>
                <time>2015-03-29T05:04:17Z</time>
            </trkpt>
            <trkpt lon="100.963685" lat="12.905378">
                <ele>50.000000</ele>
                <time>2015-03-29T05:04:55Z</time>
            </trkpt>
            <trkpt lon="100.964434" lat="12.905890">
                <ele>49.600000</ele>
                <time>2015-03-29T05:05:19Z</time>
            </trkpt>
            <trkpt lon="100.964536" lat="12.906001">
                <ele>49.200000</ele>
                <time>2015-03-29T05:05:22Z</time>
            </trkpt>
            <trkpt lon="100.964754" lat="12.906199">
                <ele>50.000000</ele>
                <time>2015-03-29T05:05:29Z</time>
            </trkpt>
            <trkpt lon="100.964804" lat="12.905074">
                <ele>56.200000</ele>
                <time>2015-03-29T05:06:14Z</time>
            </trkpt>
            <trkpt lon="100.964988" lat="12.904910">
                <ele>57.800000</ele>
                <time>2015-03-29T05:06:30Z</time>
            </trkpt>
            <trkpt lon="100.965005" lat="12.904893">
                <ele>57.400000</ele>
                <time>2015-03-29T05:06:32Z</time>
            </trkpt>
            <trkpt lon="100.965969" lat="12.905214">
                <ele>58.400000</ele>
                <time>2015-03-29T05:07:11Z</time>
            </trkpt>
            <trkpt lon="100.966898" lat="12.905228">
                <ele>60.200000</ele>
                <time>2015-03-29T05:07:32Z</time>
            </trkpt>
            <trkpt lon="100.967033" lat="12.905235">
                <ele>59.400000</ele>
                <time>2015-03-29T05:07:35Z</time>
            </trkpt>
            <trkpt lon="100.968578" lat="12.905209">
                <ele>61.800000</ele>
                <time>2015-03-29T05:08:08Z</time>
            </trkpt>
            <trkpt lon="100.969062" lat="12.904951">
                <ele>63.000000</ele>
                <time>2015-03-29T05:08:20Z</time>
            </trkpt>
            <trkpt lon="100.969367" lat="12.904880">
                <ele>63.000000</ele>
                <time>2015-03-29T05:08:27Z</time>
            </trkpt>
            <trkpt lon="100.969540" lat="12.904963">
                <ele>64.000000</ele>
                <time>2015-03-29T05:08:33Z</time>
            </trkpt>
            <trkpt lon="100.969781" lat="12.905617">
                <ele>63.200000</ele>
                <time>2015-03-29T05:08:49Z</time>
            </trkpt>
            <trkpt lon="100.969503" lat="12.906389">
                <ele>61.800000</ele>
                <time>2015-03-29T05:09:04Z</time>
            </trkpt>
            <trkpt lon="100.969566" lat="12.906521">
                <ele>63.000000</ele>
                <time>2015-03-29T05:09:07Z</time>
            </trkpt>
            <trkpt lon="100.971634" lat="12.906345">
                <ele>65.200000</ele>
                <time>2015-03-29T05:09:47Z</time>
            </trkpt>
            <trkpt lon="100.971778" lat="12.906335">
                <ele>65.600000</ele>
                <time>2015-03-29T05:09:51Z</time>
            </trkpt>
            <trkpt lon="100.972026" lat="12.906591">
                <ele>66.400000</ele>
                <time>2015-03-29T05:09:59Z</time>
            </trkpt>
            <trkpt lon="100.972117" lat="12.906864">
                <ele>63.600000</ele>
                <time>2015-03-29T05:10:05Z</time>
            </trkpt>
            <trkpt lon="100.972483" lat="12.906810">
                <ele>64.800000</ele>
                <time>2015-03-29T05:10:12Z</time>
            </trkpt>
            <trkpt lon="100.972530" lat="12.906785">
                <ele>64.400000</ele>
                <time>2015-03-29T05:10:13Z</time>
            </trkpt>
            <trkpt lon="100.972911" lat="12.906025">
                <ele>65.600000</ele>
                <time>2015-03-29T05:10:32Z</time>
            </trkpt>
            <trkpt lon="100.972993" lat="12.906016">
                <ele>66.000000</ele>
                <time>2015-03-29T05:10:34Z</time>
            </trkpt>
            <trkpt lon="100.973030" lat="12.906019">
                <ele>65.800000</ele>
                <time>2015-03-29T05:10:35Z</time>
            </trkpt>
            <trkpt lon="100.973095" lat="12.906014">
                <ele>66.000000</ele>
                <time>2015-03-29T05:10:37Z</time>
            </trkpt>
            <trkpt lon="100.973147" lat="12.906005">
                <ele>66.200000</ele>
                <time>2015-03-29T05:10:39Z</time>
            </trkpt>
            <trkpt lon="100.973170" lat="12.906008">
                <ele>66.400000</ele>
                <time>2015-03-29T05:10:41Z</time>
            </trkpt>
        </trkseg>
    </trk>
</gpx>